KELZ/ELZ METAR and TAF weather

Enter ICAO airport designator
Station Type Date Time Source
KELZ METAR 2022/01/29 00:56 UTC NOAA

KELZ 290056Z AUTO 02007KT 5SM -SN BR OVC012 M13/M15 A3005 RMK AO2 SLP213 P0000 T11281150 $


Station Type Date Time Source
KELZ Decoded METAR 2022/01/29 00:56 UTC NOAA

WELLSVILLE MUNICIPAL AIRPORT, NY, United States (KELZ) 42-06N 077-60W 646M
Jan 28, 2022 - 07:56 PM EST / 2022.01.29 0056 UTC
Wind: from the NNE (020 degrees) at 8 MPH (7 KT):0
Visibility: 5 mile(s):0
Sky conditions: overcast
Weather: light snow; mist
Precipitation last hour: A trace
Temperature: 9.0 F (-12.8 C)
Windchill: -4 F (-20 C):1
Dew Point: 5.0 F (-15.0 C)
Relative Humidity: 83%
Pressure (altimeter): 30.05 in. Hg (1017 hPa)
ob: KELZ 290056Z AUTO 02007KT 5SM -SN BR OVC012 M13/M15 A3005 RMK AO2 SLP213 P0000 T11281150
cycle: 1

Station Type Date Time Source
KELZ TAF UTC NOAA

Error!

Example: see airport list